Ridgeway, South Carolina
Current Conditions -  °F | °C
As of 1:35 PM on Thursday 23 Oct 2014 (Local Time) from KFDW Reporting Station
Clear Clear  
Wind Chill: 64°   Ceiling: Unl
Heat Index: 64°   Visibility: 10mi
Dew Point: 41°   Wind: 5mph
Humidity: 42%   Direction: 310°NW
Pressure: 30.04"   Gusts: NA
Location:  34.31°N, 80.96°W
Report Text: KFDW 231735Z AUTO 31004KT 10SM CLR 18/05 A3004 RMK AO1
Loading
Personal Weather Stations






























Interactive Weather Map
Tropical Storm Tracking
New forecast layout! Learn more

10-Day Weather Forecast

Advertisements
Track Severe Weather on mobile